sensor_id;sensor_type;location;lat;lon;timestamp;pressure;altitude;pressure_sealevel;temperature;humidity
59939;BME280;45801;51.810;19.444;2023-07-13T00:01:45;98687.40;;;21.40;69.95
59939;BME280;45801;51.810;19.444;2023-07-13T00:04:17;98689.86;;;21.43;70.06
59939;BME280;45801;51.810;19.444;2023-07-13T00:06:45;98689.14;;;21.45;69.90
59939;BME280;45801;51.810;19.444;2023-07-13T00:09:13;98689.30;;;21.47;69.98
59939;BME280;45801;51.810;19.444;2023-07-13T00:11:41;98689.11;;;21.49;69.96
59939;BME280;45801;51.810;19.444;2023-07-13T00:14:08;98690.52;;;21.51;69.79
59939;BME280;45801;51.810;19.444;2023-07-13T00:16:36;98693.91;;;21.52;69.92
59939;BME280;45801;51.810;19.444;2023-07-13T00:19:04;98688.02;;;21.51;69.70
59939;BME280;45801;51.810;19.444;2023-07-13T00:21:31;98682.70;;;21.50;69.62
59939;BME280;45801;51.810;19.444;2023-07-13T00:23:59;98678.60;;;21.49;69.56
59939;BME280;45801;51.810;19.444;2023-07-13T00:26:26;98675.40;;;21.48;69.69
59939;BME280;45801;51.810;19.444;2023-07-13T00:28:53;98677.38;;;21.46;69.59
59939;BME280;45801;51.810;19.444;2023-07-13T00:31:20;98677.91;;;21.45;69.71
59939;BME280;45801;51.810;19.444;2023-07-13T00:33:47;98679.34;;;21.45;69.67
59939;BME280;45801;51.810;19.444;2023-07-13T00:36:14;98682.36;;;21.45;69.62
59939;BME280;45801;51.810;19.444;2023-07-13T00:38:41;98684.51;;;21.45;69.63
59939;BME280;45801;51.810;19.444;2023-07-13T00:41:09;98683.63;;;21.45;69.38
59939;BME280;45801;51.810;19.444;2023-07-13T00:43:36;98683.29;;;21.41;69.59
59939;BME280;45801;51.810;19.444;2023-07-13T00:46:15;98680.71;;;21.30;70.17
59939;BME280;45801;51.810;19.444;2023-07-13T00:48:43;98680.27;;;21.19;70.33
59939;BME280;45801;51.810;19.444;2023-07-13T00:51:11;98681.61;;;21.09;70.72
59939;BME280;45801;51.810;19.444;2023-07-13T00:53:39;98682.56;;;21.00;70.88
59939;BME280;45801;51.810;19.444;2023-07-13T00:56:06;98683.52;;;20.92;71.40
59939;BME280;45801;51.810;19.444;2023-07-13T00:58:33;98690.14;;;20.85;71.51
59939;BME280;45801;51.810;19.444;2023-07-13T01:00:59;98685.92;;;20.78;71.56
59939;BME280;45801;51.810;19.444;2023-07-13T01:03:26;98691.83;;;20.71;71.92
59939;BME280;45801;51.810;19.444;2023-07-13T01:05:52;98696.67;;;20.63;72.21
59939;BME280;45801;51.810;19.444;2023-07-13T01:08:21;98692.23;;;20.59;72.54
59939;BME280;45801;51.810;19.444;2023-07-13T01:10:53;98685.31;;;20.55;72.64
59939;BME280;45801;51.810;19.444;2023-07-13T01:13:19;98679.27;;;20.53;72.79
59939;BME280;45801;51.810;19.444;2023-07-13T01:15:48;98675.55;;;20.53;72.55
59939;BME280;45801;51.810;19.444;2023-07-13T01:18:21;98668.60;;;20.54;72.59
59939;BME280;45801;51.810;19.444;2023-07-13T01:23:23;98670.20;;;20.53;72.56
59939;BME280;45801;51.810;19.444;2023-07-13T01:25:51;98665.95;;;20.52;72.68
59939;BME280;45801;51.810;19.444;2023-07-13T01:28:19;98670.40;;;20.48;72.93
59939;BME280;45801;51.810;19.444;2023-07-13T01:30:46;98669.35;;;20.45;73.10
59939;BME280;45801;51.810;19.444;2023-07-13T01:33:15;98664.75;;;20.42;73.06
59939;BME280;45801;51.810;19.444;2023-07-13T01:35:44;98662.81;;;20.39;73.26
59939;BME280;45801;51.810;19.444;2023-07-13T01:38:13;98664.08;;;20.36;73.03
59939;BME280;45801;51.810;19.444;2023-07-13T01:40:39;98667.46;;;20.34;73.30
59939;BME280;45801;51.810;19.444;2023-07-13T01:43:06;98674.40;;;20.32;73.46
59939;BME280;45801;51.810;19.444;2023-07-13T01:45:32;98679.92;;;20.30;73.46
59939;BME280;45801;51.810;19.444;2023-07-13T01:47:59;98684.91;;;20.29;73.55
59939;BME280;45801;51.810;19.444;2023-07-13T01:50:26;98688.30;;;20.27;73.36
59939;BME280;45801;51.810;19.444;2023-07-13T01:52:53;98692.23;;;20.25;73.55
59939;BME280;45801;51.810;19.444;2023-07-13T01:55:20;98694.36;;;20.23;73.65
59939;BME280;45801;51.810;19.444;2023-07-13T01:57:47;98685.32;;;20.21;73.80
59939;BME280;45801;51.810;19.444;2023-07-13T02:00:15;98686.02;;;20.20;73.55
59939;BME280;45801;51.810;19.444;2023-07-13T02:02:41;98682.84;;;20.18;73.68
59939;BME280;45801;51.810;19.444;2023-07-13T02:05:08;98676.25;;;20.17;73.36
59939;BME280;45801;51.810;19.444;2023-07-13T02:07:34;98670.23;;;20.14;73.25
59939;BME280;45801;51.810;19.444;2023-07-13T02:10:01;98668.10;;;20.12;73.49
59939;BME280;45801;51.810;19.444;2023-07-13T02:12:28;98664.20;;;20.09;73.58
59939;BME280;45801;51.810;19.444;2023-07-13T02:14:54;98663.48;;;20.07;73.81
59939;BME280;45801;51.810;19.444;2023-07-13T02:17:21;98662.96;;;20.05;73.61
59939;BME280;45801;51.810;19.444;2023-07-13T02:19:47;98660.13;;;20.02;73.58
59939;BME280;45801;51.810;19.444;2023-07-13T02:22:14;98664.95;;;19.99;73.78
59939;BME280;45801;51.810;19.444;2023-07-13T02:24:40;98667.61;;;19.95;73.73
59939;BME280;45801;51.810;19.444;2023-07-13T02:27:06;98671.19;;;19.94;73.81
59939;BME280;45801;51.810;19.444;2023-07-13T02:29:33;98670.30;;;19.93;73.82
59939;BME280;45801;51.810;19.444;2023-07-13T02:31:59;98667.29;;;19.92;73.78
59939;BME280;45801;51.810;19.444;2023-07-13T02:34:27;98666.22;;;19.90;73.81
59939;BME280;45801;51.810;19.444;2023-07-13T02:36:53;98667.29;;;19.89;74.02
59939;BME280;45801;51.810;19.444;2023-07-13T02:39:20;98661.97;;;19.87;74.27
59939;BME280;45801;51.810;19.444;2023-07-13T02:41:46;98657.35;;;19.85;74.29
59939;BME280;45801;51.810;19.444;2023-07-13T02:44:13;98659.67;;;19.84;74.42
59939;BME280;45801;51.810;19.444;2023-07-13T02:46:40;98659.32;;;19.83;74.46
59939;BME280;45801;51.810;19.444;2023-07-13T02:49:07;98663.05;;;19.82;74.24
59939;BME280;45801;51.810;19.444;2023-07-13T02:51:35;98665.72;;;19.81;74.29
59939;BME280;45801;51.810;19.444;2023-07-13T02:54:03;98661.80;;;19.81;74.33
59939;BME280;45801;51.810;19.444;2023-07-13T02:56:31;98660.73;;;19.80;74.30
59939;BME280;45801;51.810;19.444;2023-07-13T02:58:58;98661.63;;;19.79;74.38
59939;BME280;45801;51.810;19.444;2023-07-13T03:01:25;98662.88;;;19.77;74.30
59939;BME280;45801;51.810;19.444;2023-07-13T03:03:52;98664.29;;;19.76;74.23
59939;BME280;45801;51.810;19.444;2023-07-13T03:06:19;98661.80;;;19.74;74.32
59939;BME280;45801;51.810;19.444;2023-07-13T03:08:47;98657.72;;;19.73;74.52
59939;BME280;45801;51.810;19.444;2023-07-13T03:11:18;98663.40;;;19.72;74.68
59939;BME280;45801;51.810;19.444;2023-07-13T03:13:45;98665.55;;;19.71;74.62
59939;BME280;45801;51.810;19.444;2023-07-13T03:16:13;98665.73;;;19.70;74.79
59939;BME280;45801;51.810;19.444;2023-07-13T03:18:42;98665.54;;;19.70;75.08
59939;BME280;45801;51.810;19.444;2023-07-13T03:21:08;98667.85;;;19.71;75.11
59939;BME280;45801;51.810;19.444;2023-07-13T03:23:35;98665.02;;;19.71;75.43
59939;BME280;45801;51.810;19.444;2023-07-13T03:26:08;98664.11;;;19.72;75.40
59939;BME280;45801;51.810;19.444;2023-07-13T03:28:36;98663.41;;;19.74;75.37
59939;BME280;45801;51.810;19.444;2023-07-13T03:31:09;98661.98;;;19.76;75.53
59939;BME280;45801;51.810;19.444;2023-07-13T03:33:36;98658.44;;;19.79;75.41
59939;BME280;45801;51.810;19.444;2023-07-13T03:36:05;98658.42;;;19.82;75.37
59939;BME280;45801;51.810;19.444;2023-07-13T03:38:32;98660.02;;;19.85;75.22
59939;BME280;45801;51.810;19.444;2023-07-13T03:40:58;98669.25;;;19.89;75.26
59939;BME280;45801;51.810;19.444;2023-07-13T03:43:25;98671.38;;;19.91;75.67
59939;BME280;45801;51.810;19.444;2023-07-13T03:45:52;98673.68;;;19.93;75.63
59939;BME280;45801;51.810;19.444;2023-07-13T03:48:18;98674.39;;;19.94;75.66
59939;BME280;45801;51.810;19.444;2023-07-13T03:50:47;98680.24;;;19.95;75.85
59939;BME280;45801;51.810;19.444;2023-07-13T03:53:13;98681.84;;;19.97;75.76
59939;BME280;45801;51.810;19.444;2023-07-13T03:55:40;98688.06;;;19.97;76.05
59939;BME280;45801;51.810;19.444;2023-07-13T03:58:27;98696.95;;;19.97;76.13
59939;BME280;45801;51.810;19.444;2023-07-13T04:00:54;98702.46;;;19.98;76.15
59939;BME280;45801;51.810;19.444;2023-07-13T04:03:21;98707.42;;;20.02;76.01
59939;BME280;45801;51.810;19.444;2023-07-13T04:05:48;98705.30;;;20.04;75.98
59939;BME280;45801;51.810;19.444;2023-07-13T04:08:15;98706.17;;;20.06;76.03
59939;BME280;45801;51.810;19.444;2023-07-13T04:10:42;98700.64;;;20.07;76.02
59939;BME280;45801;51.810;19.444;2023-07-13T04:13:08;98700.30;;;20.07;76.43
59939;BME280;45801;51.810;19.444;2023-07-13T04:15:35;98701.35;;;20.09;76.50
59939;BME280;45801;51.810;19.444;2023-07-13T04:18:02;98701.52;;;20.10;76.69
59939;BME280;45801;51.810;19.444;2023-07-13T04:20:29;98701.52;;;20.11;76.41
59939;BME280;45801;51.810;19.444;2023-07-13T04:22:56;98704.36;;;20.13;76.88
59939;BME280;45801;51.810;19.444;2023-07-13T04:25:24;98708.45;;;20.17;76.89
59939;BME280;45801;51.810;19.444;2023-07-13T04:27:50;98710.73;;;20.21;76.81
59939;BME280;45801;51.810;19.444;2023-07-13T04:30:18;98707.70;;;20.24;76.35
59939;BME280;45801;51.810;19.444;2023-07-13T04:32:44;98706.09;;;20.27;76.61
59939;BME280;45801;51.810;19.444;2023-07-13T04:35:11;98706.06;;;20.30;76.12
59939;BME280;45801;51.810;19.444;2023-07-13T04:37:37;98705.88;;;20.33;76.02
59939;BME280;45801;51.810;19.444;2023-07-13T04:40:04;98708.36;;;20.36;75.90
59939;BME280;45801;51.810;19.444;2023-07-13T04:42:31;98714.05;;;20.39;75.95
59939;BME280;45801;51.810;19.444;2023-07-13T04:44:57;98717.06;;;20.40;75.80
59939;BME280;45801;51.810;19.444;2023-07-13T04:47:24;98722.92;;;20.41;75.66
59939;BME280;45801;51.810;19.444;2023-07-13T04:49:50;98724.34;;;20.43;75.68
59939;BME280;45801;51.810;19.444;2023-07-13T04:52:17;98722.91;;;20.44;75.26
59939;BME280;45801;51.810;19.444;2023-07-13T04:54:43;98722.55;;;20.46;74.94
59939;BME280;45801;51.810;19.444;2023-07-13T04:57:09;98719.31;;;20.50;74.79
59939;BME280;45801;51.810;19.444;2023-07-13T04:59:36;98719.13;;;20.54;74.96
59939;BME280;45801;51.810;19.444;2023-07-13T05:02:02;98723.91;;;20.58;74.62
59939;BME280;45801;51.810;19.444;2023-07-13T05:04:29;98728.52;;;20.61;74.13
59939;BME280;45801;51.810;19.444;2023-07-13T05:06:55;98732.44;;;20.65;73.99
59939;BME280;45801;51.810;19.444;2023-07-13T05:09:22;98737.05;;;20.68;73.27
59939;BME280;45801;51.810;19.444;2023-07-13T05:11:48;98739.36;;;20.71;72.95
59939;BME280;45801;51.810;19.444;2023-07-13T05:14:15;98743.09;;;20.73;73.02
59939;BME280;45801;51.810;19.444;2023-07-13T05:16:42;98743.26;;;20.74;73.22
59939;BME280;45801;51.810;19.444;2023-07-13T05:19:09;98743.08;;;20.75;72.98
59939;BME280;45801;51.810;19.444;2023-07-13T05:21:36;98746.45;;;20.76;73.13
59939;BME280;45801;51.810;19.444;2023-07-13T05:24:03;98751.25;;;20.77;73.17
59939;BME280;45801;51.810;19.444;2023-07-13T05:26:29;98746.61;;;20.79;73.00
59939;BME280;45801;51.810;19.444;2023-07-13T05:28:55;98741.08;;;20.82;72.86
59939;BME280;45801;51.810;19.444;2023-07-13T05:31:22;98739.80;;;20.86;73.23
59939;BME280;45801;51.810;19.444;2023-07-13T05:33:48;98741.73;;;20.91;72.87
59939;BME280;45801;51.810;19.444;2023-07-13T05:36:14;98742.96;;;20.94;73.00
59939;BME280;45801;51.810;19.444;2023-07-13T05:38:41;98744.73;;;20.94;72.45
59939;BME280;45801;51.810;19.444;2023-07-13T05:41:07;98749.34;;;20.97;72.41
59939;BME280;45801;51.810;19.444;2023-07-13T05:43:56;98750.55;;;21.01;72.22
59939;BME280;45801;51.810;19.444;2023-07-13T05:46:22;98750.02;;;21.04;72.28
59939;BME280;45801;51.810;19.444;2023-07-13T05:48:49;98747.70;;;21.05;72.08
59939;BME280;45801;51.810;19.444;2023-07-13T05:51:15;98746.08;;;21.07;72.32
59939;BME280;45801;51.810;19.444;2023-07-13T05:53:41;98745.36;;;21.09;72.47
59939;BME280;45801;51.810;19.444;2023-07-13T05:56:08;98741.44;;;21.09;71.98
59939;BME280;45801;51.810;19.444;2023-07-13T05:58:34;98740.02;;;21.07;71.60
59939;BME280;45801;51.810;19.444;2023-07-13T06:01:05;98740.57;;;21.06;71.59
59939;BME280;45801;51.810;19.444;2023-07-13T06:03:32;98743.41;;;21.05;71.57
59939;BME280;45801;51.810;19.444;2023-07-13T06:05:59;98743.23;;;21.07;71.45
59939;BME280;45801;51.810;19.444;2023-07-13T06:08:29;98744.64;;;21.11;71.94
59939;BME280;45801;51.810;19.444;2023-07-13T06:11:02;98742.65;;;21.15;71.51
59939;BME280;45801;51.810;19.444;2023-07-13T06:13:29;98747.24;;;21.18;70.99
59939;BME280;45801;51.810;19.444;2023-07-13T06:15:56;98745.63;;;21.20;71.05
59939;BME280;45801;51.810;19.444;2023-07-13T06:18:22;98742.59;;;21.22;71.57
59939;BME280;45801;51.810;19.444;2023-07-13T06:20:48;98738.11;;;21.24;71.80
59939;BME280;45801;51.810;19.444;2023-07-13T06:23:15;98735.59;;;21.28;71.98
59939;BME280;45801;51.810;19.444;2023-07-13T06:25:43;98736.45;;;21.33;71.90
59939;BME280;45801;51.810;19.444;2023-07-13T06:28:09;98736.73;;;21.40;71.31
59939;BME280;45801;51.810;19.444;2023-07-13T06:30:38;98740.98;;;21.48;71.04
59939;BME280;45801;51.810;19.444;2023-07-13T06:33:05;98734.51;;;21.55;70.55
59939;BME280;45801;51.810;19.444;2023-07-13T06:35:32;98728.73;;;21.63;70.66
59939;BME280;45801;51.810;19.444;2023-07-13T06:37:59;98732.73;;;21.74;70.60
59939;BME280;45801;51.810;19.444;2023-07-13T06:40:25;98732.46;;;21.83;70.74
59939;BME280;45801;51.810;19.444;2023-07-13T06:42:52;98729.90;;;21.90;69.68
59939;BME280;45801;51.810;19.444;2023-07-13T06:45:18;98728.92;;;21.98;68.98
59939;BME280;45801;51.810;19.444;2023-07-13T06:47:45;98728.85;;;22.05;68.15
59939;BME280;45801;51.810;19.444;2023-07-13T06:50:11;98731.81;;;22.10;67.57
59939;BME280;45801;51.810;19.444;2023-07-13T06:52:38;98729.46;;;22.13;67.76
59939;BME280;45801;51.810;19.444;2023-07-13T06:55:04;98729.06;;;22.18;67.89
59939;BME280;45801;51.810;19.444;2023-07-13T06:57:31;98730.77;;;22.23;67.76
59939;BME280;45801;51.810;19.444;2023-07-13T06:59:58;98731.05;;;22.30;67.67
59939;BME280;45801;51.810;19.444;2023-07-13T07:02:24;98733.70;;;22.35;67.12
59939;BME280;45801;51.810;19.444;2023-07-13T07:04:50;98737.34;;;22.43;67.01
59939;BME280;45801;51.810;19.444;2023-07-13T07:07:17;98735.49;;;22.48;66.63
59939;BME280;45801;51.810;19.444;2023-07-13T07:09:43;98733.84;;;22.52;67.18
59939;BME280;45801;51.810;19.444;2023-07-13T07:12:10;98731.27;;;22.57;67.06
59939;BME280;45801;51.810;19.444;2023-07-13T07:14:36;98739.56;;;22.64;66.89
59939;BME280;45801;51.810;19.444;2023-07-13T07:17:03;98743.36;;;22.74;66.97
59939;BME280;45801;51.810;19.444;2023-07-13T07:19:30;98740.38;;;22.83;67.21
59939;BME280;45801;51.810;19.444;2023-07-13T07:21:56;98737.06;;;22.91;65.78
59939;BME280;45801;51.810;19.444;2023-07-13T07:24:23;98736.98;;;22.96;65.57
59939;BME280;45801;51.810;19.444;2023-07-13T07:26:49;98737.61;;;23.02;65.13
59939;BME280;45801;51.810;19.444;2023-07-13T07:29:16;98740.60;;;23.05;65.53
59939;BME280;45801;51.810;19.444;2023-07-13T07:31:42;98746.27;;;23.08;64.74
59939;BME280;45801;51.810;19.444;2023-07-13T07:34:08;98746.80;;;23.10;63.87
59939;BME280;45801;51.810;19.444;2023-07-13T07:36:35;98748.95;;;23.10;62.98
59939;BME280;45801;51.810;19.444;2023-07-13T07:39:01;98749.46;;;23.11;63.62
59939;BME280;45801;51.810;19.444;2023-07-13T07:41:28;98751.41;;;23.13;62.47
59939;BME280;45801;51.810;19.444;2023-07-13T07:43:54;98759.46;;;23.12;61.81
59939;BME280;45801;51.810;19.444;2023-07-13T07:46:20;98764.27;;;23.12;61.05
59939;BME280;45801;51.810;19.444;2023-07-13T07:48:47;98769.84;;;23.12;60.75
59939;BME280;45801;51.810;19.444;2023-07-13T07:51:13;98781.46;;;23.11;61.12
59939;BME280;45801;51.810;19.444;2023-07-13T07:53:40;98791.63;;;23.11;61.74
59939;BME280;45801;51.810;19.444;2023-07-13T07:56:06;98801.47;;;23.10;61.78
59939;BME280;45801;51.810;19.444;2023-07-13T07:58:33;98809.16;;;23.09;61.63
59939;BME280;45801;51.810;19.444;2023-07-13T08:01:04;98812.73;;;23.08;61.79
59939;BME280;45801;51.810;19.444;2023-07-13T08:03:31;98817.76;;;23.05;61.14
59939;BME280;45801;51.810;19.444;2023-07-13T08:05:58;98827.79;;;23.04;61.31
59939;BME280;45801;51.810;19.444;2023-07-13T08:08:25;98831.02;;;23.02;61.30
59939;BME280;45801;51.810;19.444;2023-07-13T08:10:52;98832.64;;;23.01;61.27
59939;BME280;45801;51.810;19.444;2023-07-13T08:13:19;98834.64;;;22.98;61.13
59939;BME280;45801;51.810;19.444;2023-07-13T08:15:46;98840.39;;;22.96;61.25
59939;BME280;45801;51.810;19.444;2023-07-13T08:18:13;98845.98;;;22.90;61.77
59939;BME280;45801;51.810;19.444;2023-07-13T08:20:39;98852.50;;;22.85;63.46
59939;BME280;45801;51.810;19.444;2023-07-13T08:23:10;98860.98;;;22.77;64.85
59939;BME280;45801;51.810;19.444;2023-07-13T08:25:36;98867.91;;;22.65;66.02
59939;BME280;45801;51.810;19.444;2023-07-13T08:28:03;98874.36;;;22.46;66.92
59939;BME280;45801;51.810;19.444;2023-07-13T08:30:30;98877.73;;;22.27;67.21
59939;BME280;45801;51.810;19.444;2023-07-13T08:32:56;98876.41;;;22.16;66.95
59939;BME280;45801;51.810;19.444;2023-07-13T08:35:23;98872.77;;;22.05;67.42
59939;BME280;45801;51.810;19.444;2023-07-13T08:37:52;98878.71;;;21.97;67.85
59939;BME280;45801;51.810;19.444;2023-07-13T08:40:19;98875.52;;;21.94;66.98
59939;BME280;45801;51.810;19.444;2023-07-13T08:42:58;98876.45;;;21.90;67.55
59939;BME280;45801;51.810;19.444;2023-07-13T08:45:43;98872.95;;;21.82;67.41
59939;BME280;45801;51.810;19.444;2023-07-13T08:48:19;98876.91;;;21.77;66.99
59939;BME280;45801;51.810;19.444;2023-07-13T08:52:12;98872.86;;;21.70;67.24
59939;BME280;45801;51.810;19.444;2023-07-13T08:56:55;98872.09;;;21.52;67.88
59939;BME280;45801;51.810;19.444;2023-07-13T08:59:26;98875.34;;;21.43;68.46
59939;BME280;45801;51.810;19.444;2023-07-13T09:02:05;98874.48;;;21.35;70.17
59939;BME280;45801;51.810;19.444;2023-07-13T09:04:46;98877.56;;;21.26;69.84
59939;BME280;45801;51.810;19.444;2023-07-13T09:10:18;98880.50;;;21.10;68.97
59939;BME280;45801;51.810;19.444;2023-07-13T09:15:39;98886.79;;;20.97;69.16
59939;BME280;45801;51.810;19.444;2023-07-13T09:18:22;98889.13;;;20.92;70.08
59939;BME280;45801;51.810;19.444;2023-07-13T09:21:05;98892.70;;;20.87;70.10
59939;BME280;45801;51.810;19.444;2023-07-13T09:23:35;98896.08;;;20.84;69.87
59939;BME280;45801;51.810;19.444;2023-07-13T09:26:11;98893.80;;;20.81;70.34
59939;BME280;45801;51.810;19.444;2023-07-13T09:28:42;98897.02;;;20.78;71.22
59939;BME280;45801;51.810;19.444;2023-07-13T09:31:30;98895.05;;;20.76;70.56
59939;BME280;45801;51.810;19.444;2023-07-13T09:34:00;98890.98;;;20.73;70.84
59939;BME280;45801;51.810;19.444;2023-07-13T09:36:32;98890.63;;;20.73;70.45
59939;BME280;45801;51.810;19.444;2023-07-13T09:39:09;98890.98;;;20.72;70.49
59939;BME280;45801;51.810;19.444;2023-07-13T09:42:00;98890.98;;;20.72;70.55
59939;BME280;45801;51.810;19.444;2023-07-13T09:44:31;98889.02;;;20.72;71.70
59939;BME280;45801;51.810;19.444;2023-07-13T09:46:58;98886.17;;;20.70;71.74
59939;BME280;45801;51.810;19.444;2023-07-13T09:49:34;98885.64;;;20.69;71.73
59939;BME280;45801;51.810;19.444;2023-07-13T09:52:04;98885.11;;;20.68;72.01
59939;BME280;45801;51.810;19.444;2023-07-13T09:54:36;98883.88;;;20.68;72.76
59939;BME280;45801;51.810;19.444;2023-07-13T09:57:11;98879.77;;;20.66;72.77
59939;BME280;45801;51.810;19.444;2023-07-13T09:59:44;98879.23;;;20.65;72.99
59939;BME280;45801;51.810;19.444;2023-07-13T10:05:11;98882.08;;;20.64;73.67
59939;BME280;45801;51.810;19.444;2023-07-13T10:07:43;98887.25;;;20.66;74.33
59939;BME280;45801;51.810;19.444;2023-07-13T10:10:21;98886.54;;;20.68;73.97
59939;BME280;45801;51.810;19.444;2023-07-13T10:12:49;98887.95;;;20.70;73.95
59939;BME280;45801;51.810;19.444;2023-07-13T10:15:27;98882.96;;;20.73;73.06
59939;BME280;45801;51.810;19.444;2023-07-13T10:17:55;98881.17;;;20.77;72.34
59939;BME280;45801;51.810;19.444;2023-07-13T10:20:26;98880.99;;;20.80;72.26
59939;BME280;45801;51.810;19.444;2023-07-13T10:23:13;98879.55;;;20.83;72.84
59939;BME280;45801;51.810;19.444;2023-07-13T10:25:42;98876.88;;;20.85;72.18
59939;BME280;45801;51.810;19.444;2023-07-13T10:28:34;98877.04;;;20.88;71.82
59939;BME280;45801;51.810;19.444;2023-07-13T10:31:05;98875.42;;;20.91;71.82
59939;BME280;45801;51.810;19.444;2023-07-13T10:33:36;98878.27;;;20.91;70.99
59939;BME280;45801;51.810;19.444;2023-07-13T10:36:14;98873.65;;;20.91;70.71
59939;BME280;45801;51.810;19.444;2023-07-13T10:38:43;98873.47;;;20.91;70.72
59939;BME280;45801;51.810;19.444;2023-07-13T10:41:14;98875.06;;;20.91;71.81
59939;BME280;45801;51.810;19.444;2023-07-13T10:43:44;98874.70;;;20.92;72.52
59939;BME280;45801;51.810;19.444;2023-07-13T10:46:14;98874.71;;;20.90;71.89
59939;BME280;45801;51.810;19.444;2023-07-13T10:48:43;98878.46;;;20.88;71.46
59939;BME280;45801;51.810;19.444;2023-07-13T10:51:13;98877.74;;;20.88;72.04
59939;BME280;45801;51.810;19.444;2023-07-13T10:53:40;98874.00;;;20.88;71.50
59939;BME280;45801;51.810;19.444;2023-07-13T10:56:22;98875.61;;;20.89;71.87
59939;BME280;45801;51.810;19.444;2023-07-13T10:59:06;98881.12;;;20.91;72.20
59939;BME280;45801;51.810;19.444;2023-07-13T11:01:49;98882.55;;;20.91;71.98
59939;BME280;45801;51.810;19.444;2023-07-13T11:04:17;98879.34;;;20.91;72.05
59939;BME280;45801;51.810;19.444;2023-07-13T11:06:48;98879.51;;;20.95;73.12
59939;BME280;45801;51.810;19.444;2023-07-13T11:09:34;98876.63;;;20.98;72.58
59939;BME280;45801;51.810;19.444;2023-07-13T11:12:08;98873.05;;;21.01;71.82
59939;BME280;45801;51.810;19.444;2023-07-13T11:14:38;98868.40;;;21.10;71.66
59939;BME280;45801;51.810;19.444;2023-07-13T11:22:52;98888.96;;;21.26;71.03
59939;BME280;45801;51.810;19.444;2023-07-13T11:25:34;98892.34;;;21.27;70.53
59939;BME280;45801;51.810;19.444;2023-07-13T11:31:00;98886.07;;;21.34;70.57
59939;BME280;45801;51.810;19.444;2023-07-13T11:33:45;98878.55;;;21.41;70.45
59939;BME280;45801;51.810;19.444;2023-07-13T11:36:18;98874.77;;;21.47;70.18
59939;BME280;45801;51.810;19.444;2023-07-13T11:39:16;98877.07;;;21.53;70.05
59939;BME280;45801;51.810;19.444;2023-07-13T11:41:53;98877.23;;;21.60;69.87
59939;BME280;45801;51.810;19.444;2023-07-13T11:44:24;98874.70;;;21.63;69.83
59939;BME280;45801;51.810;19.444;2023-07-13T11:47:00;98874.35;;;21.63;70.05
59939;BME280;45801;51.810;19.444;2023-07-13T11:49:30;98867.73;;;21.64;70.02
59939;BME280;45801;51.810;19.444;2023-07-13T11:51:58;98879.11;;;21.70;69.74
59939;BME280;45801;51.810;19.444;2023-07-13T11:57:01;98875.73;;;21.67;69.73
59939;BME280;45801;51.810;19.444;2023-07-13T11:59:30;98880.58;;;21.63;69.27
59939;BME280;45801;51.810;19.444;2023-07-13T12:01:59;98885.06;;;21.58;69.87
59939;BME280;45801;51.810;19.444;2023-07-13T12:04:31;98887.77;;;21.54;70.36
59939;BME280;45801;51.810;19.444;2023-07-13T12:07:11;98888.67;;;21.52;70.76
59939;BME280;45801;51.810;19.444;2023-07-13T12:09:40;98887.41;;;21.49;70.75
59939;BME280;45801;51.810;19.444;2023-07-13T12:12:13;98890.28;;;21.45;70.25
59939;BME280;45801;51.810;19.444;2023-07-13T12:14:40;98893.85;;;21.45;70.97
59939;BME280;45801;51.810;19.444;2023-07-13T12:17:19;98893.50;;;21.43;70.44
59939;BME280;45801;51.810;19.444;2023-07-13T12:19:47;98902.95;;;21.40;69.62
59939;BME280;45801;51.810;19.444;2023-07-13T12:22:16;98902.24;;;21.41;69.95
59939;BME280;45801;51.810;19.444;2023-07-13T12:24:44;98905.61;;;21.46;69.65
59939;BME280;45801;51.810;19.444;2023-07-13T12:27:23;98908.63;;;21.52;69.71
59939;BME280;45801;51.810;19.444;2023-07-13T12:29:56;98904.88;;;21.53;69.98
59939;BME280;45801;51.810;19.444;2023-07-13T12:32:25;98902.37;;;21.54;69.91
59939;BME280;45801;51.810;19.444;2023-07-13T12:34:57;98897.91;;;21.56;69.64
59939;BME280;45801;51.810;19.444;2023-07-13T12:37:24;98896.66;;;21.57;69.41
59939;BME280;45801;51.810;19.444;2023-07-13T12:39:51;98898.79;;;21.58;69.69
59939;BME280;45801;51.810;19.444;2023-07-13T12:42:22;98901.63;;;21.59;69.89
59939;BME280;45801;51.810;19.444;2023-07-13T12:44:54;98901.44;;;21.61;69.54
59939;BME280;45801;51.810;19.444;2023-07-13T12:47:22;98902.83;;;21.67;69.05
59939;BME280;45801;51.810;19.444;2023-07-13T12:49:53;98901.16;;;21.75;68.79
59939;BME280;45801;51.810;19.444;2023-07-13T12:52:23;98895.23;;;21.83;68.60
59939;BME280;45801;51.810;19.444;2023-07-13T12:54:55;98895.35;;;21.90;68.32
59939;BME280;45801;51.810;19.444;2023-07-13T12:57:23;98894.23;;;21.98;68.27
59939;BME280;45801;51.810;19.444;2023-07-13T12:59:53;98888.98;;;22.05;67.96
59939;BME280;45801;51.810;19.444;2023-07-13T13:02:29;98887.89;;;22.10;67.75
59939;BME280;45801;51.810;19.444;2023-07-13T13:04:57;98886.59;;;22.14;67.79
59939;BME280;45801;51.810;19.444;2023-07-13T13:07:26;98886.56;;;22.17;67.76
59939;BME280;45801;51.810;19.444;2023-07-13T13:09:52;98886.18;;;22.21;67.78
59939;BME280;45801;51.810;19.444;2023-07-13T13:12:22;98887.77;;;22.22;67.48
59939;BME280;45801;51.810;19.444;2023-07-13T13:14:52;98885.08;;;22.24;67.44
59939;BME280;45801;51.810;19.444;2023-07-13T13:17:28;98889.34;;;22.26;67.77
59939;BME280;45801;51.810;19.444;2023-07-13T13:19:55;98889.85;;;22.29;67.64
59939;BME280;45801;51.810;19.444;2023-07-13T13:22:22;98888.77;;;22.33;67.73
59939;BME280;45801;51.810;19.444;2023-07-13T13:24:48;98889.83;;;22.35;67.51
59939;BME280;45801;51.810;19.444;2023-07-13T13:27:16;98890.34;;;22.37;67.48